Terminal Aerodrome Forecast
Issued by NWS

Home | Current Version | Previous Version | Text Only | Print | Product List | Glossary On
Versions: 1 2 3 4 5 6 7 8 9 10 11 12 13
000
FTUS43 KICT 292300
TAFHUT
TAF
KHUT 292332Z 3000/3024 09007KT P6SM SCT070
     FM300500 09010KT P6SM VCSH SCT040 OVC070
     FM301000 09007KT P6SM SHRA SCT015 OVC025
     FM301400 11007KT 5SM SHRA BR VCTS SCT008 OVC015CB
     FM302000 11005KT P6SM SCT020 BKN050=

USA.gov is the U.S. government's official web portal to all federal, state and local government web resources and services.